createdAt,value
2022-09-05T00:00:23.280Z,99544.38
2022-09-05T00:05:38.494Z,99540.06
2022-09-05T00:11:41.254Z,99541.75
2022-09-05T00:16:44.241Z,99542.63
2022-09-05T00:24:37.610Z,99541.03
2022-09-05T00:27:30.292Z,99530.09
2022-09-05T00:32:47.172Z,99533.69
2022-09-05T00:37:52.742Z,99537.25
2022-09-05T00:43:01.636Z,99529.66
2022-09-05T00:48:19.405Z,99532.41
2022-09-05T00:53:32.280Z,99521.31
2022-09-05T00:58:50.043Z,99518.81
2022-09-05T01:04:07.188Z,99510.34
2022-09-05T01:09:30.193Z,99511.31
2022-09-05T01:14:48.103Z,99500.13
2022-09-05T01:20:19.059Z,99496.75
2022-09-05T01:25:36.791Z,99496.81
2022-09-05T01:30:50.115Z,99499.44
2022-09-05T01:36:12.530Z,99500.38
2022-09-05T01:41:24.374Z,99484.84
2022-09-05T01:46:39.147Z,99491.78
2022-09-05T01:52:10.791Z,99492.72
2022-09-05T01:57:22.514Z,99491.03
2022-09-05T02:02:50.315Z,99495.44
2022-09-05T02:08:23.597Z,99495.44
2022-09-05T02:13:42.610Z,99491.13
2022-09-05T02:18:56.401Z,99497.16
2022-09-05T02:24:13.896Z,99493.72
2022-09-05T02:29:28.417Z,99500.56
2022-09-05T02:34:46.472Z,99506.56
2022-09-05T02:45:03.258Z,99506.56
2022-09-05T02:45:38.692Z,99504.84
2022-09-05T02:57:23.713Z,99498.91
2022-09-05T02:57:33.106Z,99502.38
2022-09-05T03:02:25.556Z,99506.72
2022-09-05T03:07:48.842Z,99503.28
2022-09-05T03:13:38.166Z,99505.00
2022-09-05T03:19:33.567Z,99513.66
2022-09-05T03:25:14.944Z,99518.91
2022-09-05T03:30:22.799Z,99521.56
2022-09-05T03:36:18.935Z,99515.59
2022-09-05T03:41:40.475Z,99505.25
2022-09-05T03:46:57.672Z,99503.66
2022-09-05T03:57:13.434Z,99501.13
2022-09-05T03:58:08.846Z,99503.81
2022-09-05T04:08:10.480Z,99501.25
2022-09-05T04:09:03.100Z,99509.09
2022-09-05T04:14:12.512Z,99504.81
2022-09-05T04:19:21.489Z,99511.81
2022-09-05T04:24:31.543Z,99513.59
2022-09-05T04:29:46.057Z,99513.59
2022-09-05T04:35:05.659Z,99511.06
2022-09-05T04:40:35.952Z,99517.97
2022-09-05T04:45:45.830Z,99513.66
2022-09-05T04:51:06.465Z,99516.25
2022-09-05T04:56:19.294Z,99518.00
2022-09-05T05:06:01.153Z,99510.22
2022-09-05T05:07:06.122Z,99514.53
2022-09-05T05:17:54.345Z,99509.34
2022-09-05T05:18:11.988Z,99515.41
2022-09-05T05:23:19.425Z,99521.44
2022-09-05T05:28:30.154Z,99511.84
2022-09-05T05:33:38.934Z,99515.28
2022-09-05T05:38:49.422Z,99522.09
2022-09-05T05:43:53.183Z,99523.69
2022-09-05T05:49:15.448Z,99520.88
2022-09-05T05:54:27.611Z,99513.84
2022-09-05T05:59:59.015Z,99521.44
2022-09-05T06:05:23.681Z,99511.72
2022-09-05T06:15:06.967Z,99523.81
2022-09-05T06:17:28.117Z,99529.13
2022-09-05T06:23:28.780Z,99528.19
2022-09-05T06:28:53.928Z,99535.91
2022-09-05T06:34:30.859Z,99535.03
2022-09-05T06:39:54.865Z,99535.97
2022-09-05T06:45:17.337Z,99531.00
2022-09-05T06:51:02.008Z,99516.81
2022-09-05T06:56:26.729Z,99527.66
2022-09-05T07:01:55.216Z,99525.09
2022-09-05T07:07:06.291Z,99524.13
2022-09-05T07:12:19.943Z,99529.63
2022-09-05T07:17:53.590Z,99527.13
2022-09-05T07:23:25.780Z,99523.00
2022-09-05T07:28:36.779Z,99521.25
2022-09-05T07:33:42.202Z,99512.41
2022-09-05T07:38:58.810Z,99514.78
2022-09-05T07:44:17.049Z,99510.91
2022-09-05T07:49:31.134Z,99513.22
2022-09-05T07:56:59.648Z,99500.16
2022-09-05T08:00:25.717Z,99508.41
2022-09-05T08:05:40.639Z,99504.38
2022-09-05T08:11:23.171Z,99509.00
2022-09-05T08:16:16.741Z,99505.63
2022-09-05T08:21:27.425Z,99495.72
2022-09-05T08:26:38.341Z,99487.41
2022-09-05T08:31:47.241Z,99498.47
2022-09-05T08:36:52.407Z,99495.72
2022-09-05T08:42:25.499Z,99499.13
2022-09-05T08:47:45.677Z,99490.63
2022-09-05T08:53:00.581Z,99487.00
2022-09-05T08:58:11.789Z,99491.47
2022-09-05T09:03:25.754Z,99484.94
2022-09-05T09:08:40.856Z,99484.41
2022-09-05T09:13:54.585Z,99486.66
2022-09-05T09:19:10.828Z,99488.78
2022-09-05T09:24:33.919Z,99482.28
2022-09-05T09:29:41.019Z,99485.38
2022-09-05T09:34:53.035Z,99475.22
2022-09-05T09:40:23.385Z,99461.72
2022-09-05T09:45:41.643Z,99482.75
2022-09-05T09:51:12.371Z,99473.53
2022-09-05T09:56:46.058Z,99463.28
2022-09-05T10:02:20.407Z,99469.16
2022-09-05T10:10:46.164Z,99464.88
2022-09-05T10:13:27.196Z,99460.94
2022-09-05T10:18:44.559Z,99456.63
2022-09-05T10:24:14.752Z,99450.88
2022-09-05T10:29:42.991Z,99457.06
2022-09-05T10:35:15.177Z,99457.28
2022-09-05T10:40:27.038Z,99439.34
2022-09-05T10:45:43.875Z,99450.81
2022-09-05T10:50:53.537Z,99440.50
2022-09-05T10:56:13.323Z,99434.09
2022-09-05T11:02:29.997Z,99437.72
2022-09-05T11:07:06.531Z,99427.31
2022-09-05T11:12:28.466Z,99426.72
2022-09-05T11:17:38.767Z,99429.38
2022-09-05T11:22:47.844Z,99425.91
2022-09-05T11:27:55.591Z,99422.81
2022-09-05T11:39:57.799Z,99418.53
2022-09-05T11:39:59.172Z,99413.88
2022-09-05T11:44:37.701Z,99425.25
2022-09-05T11:50:12.540Z,99417.22
2022-09-05T11:55:39.589Z,99418.97
2022-09-05T12:00:49.241Z,99407.78
2022-09-05T12:06:49.289Z,99403.97
2022-09-05T12:12:18.617Z,99390.34
2022-09-05T12:17:42.393Z,99396.50
2022-09-05T12:22:54.462Z,99404.22
2022-09-05T12:29:25.955Z,99432.00
2022-09-05T12:36:04.010Z,99409.84
2022-09-05T12:41:23.698Z,99413.13
2022-09-05T12:44:52.076Z,99409.84
2022-09-05T12:50:15.124Z,99401.81
2022-09-05T12:55:27.942Z,99404.13
2022-09-05T13:03:01.750Z,99404.75
2022-09-05T13:06:25.036Z,99399.16
2022-09-05T13:14:47.170Z,99403.22
2022-09-05T13:17:01.515Z,99399.59
2022-09-05T13:22:08.767Z,99395.34
2022-09-05T13:27:16.064Z,99397.28
2022-09-05T13:37:54.692Z,99393.69
2022-09-05T13:38:41.967Z,99389.25
2022-09-05T13:43:26.780Z,99386.53
2022-09-05T13:54:36.434Z,99380.38
2022-09-05T13:59:43.094Z,99378.44
2022-09-05T14:05:19.452Z,99386.22
2022-09-05T14:10:51.211Z,99387.34
2022-09-05T14:15:59.006Z,99387.66
2022-09-05T14:21:18.040Z,99388.50
2022-09-05T14:26:37.049Z,99389.38
2022-09-05T14:37:36.554Z,99387.66
2022-09-05T14:38:09.434Z,99380.81
2022-09-05T14:43:40.373Z,99375.88
2022-09-05T14:49:00.355Z,99376.22
2022-09-05T15:02:53.943Z,99379.16
2022-09-05T15:05:11.470Z,99374.84
2022-09-05T15:12:14.470Z,99371.38
2022-09-05T15:16:07.938Z,99367.97
2022-09-05T15:21:33.097Z,99372.28
2022-09-05T15:26:51.939Z,99375.81
2022-09-05T15:32:15.008Z,99381.81
2022-09-05T15:37:30.744Z,99377.69
2022-09-05T15:42:37.018Z,99377.91
2022-09-05T15:47:47.311Z,99378.78
2022-09-05T15:52:55.999Z,99370.22
2022-09-05T15:58:03.545Z,99380.66
2022-09-05T16:07:05.617Z,99378.97
2022-09-05T16:10:38.520Z,99380.75
2022-09-05T16:14:23.800Z,99386.84
2022-09-05T16:23:15.562Z,99381.72
2022-09-05T16:25:03.719Z,99388.63
2022-09-05T16:30:12.069Z,99385.19
2022-09-05T16:35:25.207Z,99394.72
2022-09-05T16:40:35.561Z,99393.88
2022-09-05T16:45:48.294Z,99395.59
2022-09-05T16:50:58.875Z,99406.97
2022-09-05T16:56:23.657Z,99410.47
2022-09-05T17:01:54.901Z,99426.97
2022-09-05T17:07:18.163Z,99420.97
2022-09-05T17:12:33.741Z,99432.22
2022-09-05T17:18:22.778Z,99418.38
2022-09-05T17:29:16.319Z,99426.16
2022-09-05T17:35:22.509Z,99427.91
2022-09-05T17:40:49.111Z,99433.97
2022-09-05T17:46:00.921Z,99440.88
2022-09-05T17:51:05.029Z,99440.91
2022-09-05T17:56:33.968Z,99448.69
2022-09-05T18:01:39.566Z,99452.19
2022-09-05T18:06:51.045Z,99449.56
2022-09-05T18:18:02.033Z,99442.63
2022-09-05T18:23:44.333Z,99443.50
2022-09-05T18:29:05.902Z,99443.47
2022-09-05T18:35:08.648Z,99444.38
2022-09-05T18:40:36.958Z,99446.09
2022-09-05T18:45:50.514Z,99444.38
2022-09-05T18:51:15.334Z,99444.38
2022-09-05T18:56:27.724Z,99423.59
2022-09-05T19:01:41.288Z,99443.53
2022-09-05T19:06:48.286Z,99434.84
2022-09-05T19:12:10.855Z,99434.88
2022-09-05T19:17:35.012Z,99432.28
2022-09-05T19:23:08.965Z,99433.16
2022-09-05T19:35:11.343Z,99430.56
2022-09-05T19:36:49.130Z,99424.50
2022-09-05T19:41:47.902Z,99427.94
2022-09-05T19:47:38.377Z,99416.69
2022-09-05T19:50:05.967Z,99421.03
2022-09-05T19:55:22.055Z,99412.38
2022-09-05T20:00:28.028Z,99412.38
2022-09-05T20:05:33.883Z,99403.69
2022-09-05T20:10:37.475Z,99416.66
2022-09-05T20:15:42.184Z,99414.03
2022-09-05T20:20:55.011Z,99409.69
2022-09-05T20:25:59.488Z,99410.53
2022-09-05T20:31:08.423Z,99408.78
2022-09-05T20:43:14.898Z,99412.22
2022-09-05T20:43:22.466Z,99411.38
2022-09-05T20:48:31.833Z,99404.50
2022-09-05T20:54:25.732Z,99404.53
2022-09-05T20:58:09.357Z,99395.88
2022-09-05T21:03:17.454Z,99392.38
2022-09-05T21:08:32.515Z,99396.72
2022-09-05T21:13:41.211Z,99393.22
2022-09-05T21:18:56.969Z,99394.97
2022-09-05T21:24:08.989Z,99394.06
2022-09-05T21:29:28.774Z,99392.34
2022-09-05T21:34:44.838Z,99395.78
2022-09-05T21:39:59.601Z,99384.50
2022-09-05T21:47:42.053Z,99384.50
2022-09-05T21:50:31.469Z,99382.81
2022-09-05T21:59:18.403Z,99380.25
2022-09-05T22:01:00.255Z,99385.41
2022-09-05T22:06:07.465Z,99383.66
2022-09-05T22:11:14.768Z,99382.84
2022-09-05T22:16:18.356Z,99382.84
2022-09-05T22:21:33.278Z,99381.09
2022-09-05T22:27:11.515Z,99369.88
2022-09-05T22:32:08.896Z,99364.66
2022-09-05T22:37:16.381Z,99366.38
2022-09-05T22:42:21.244Z,99366.38
2022-09-05T22:47:26.182Z,99375.84
2022-09-05T22:52:29.631Z,99378.47
2022-09-05T22:57:34.525Z,99369.00
2022-09-05T23:02:37.979Z,99375.06
2022-09-05T23:07:41.385Z,99365.50
2022-09-05T23:12:46.793Z,99358.53
2022-09-05T23:17:54.607Z,99359.38
2022-09-05T23:22:58.653Z,99362.81
2022-09-05T23:28:08.004Z,99368.88
2022-09-05T23:33:12.887Z,99373.09
2022-09-05T23:38:16.323Z,99380.88
2022-09-05T23:43:21.282Z,99369.69
2022-09-05T23:48:24.625Z,99377.47
2022-09-05T23:53:28.367Z,99376.50
2022-09-05T23:58:33.665Z,99371.31
